Time;durP1;ratioP1;P1;durP2;ratioP2;P2;SDS_P1;SDS_P2;PMS_P1;PMS_P2;Temp;Humidity;BMP_temperature;BMP_pressure;BME280_temperature;BME280_humidity;BME280_pressure;Samples;Min_cycle;Max_cycle;Signal;HPM_P1;HPM_P2
2022/11/02 00:08:18;;;;;;;9.95;3.40;;;6.50;99.90;;;;;;21080935;28;20065;-58
2022/11/02 00:18:21;;;;;;;7.63;2.47;;;6.40;99.90;;;;;;21107638;28;20043;-67
2022/11/02 00:28:24;;;;;;;8.25;2.78;;;6.40;99.90;;;;;;21106864;28;20093;-59
2022/11/02 00:38:26;;;;;;;5.72;1.98;;;6.40;99.90;;;;;;21120531;28;20557;-68
2022/11/02 00:48:30;;;;;;;8.70;2.15;;;6.40;99.90;;;;;;21089736;28;20060;-68
2022/11/02 00:58:34;;;;;;;8.55;1.90;;;6.30;99.90;;;;;;21044642;28;20802;-59
2022/11/02 01:08:37;;;;;;;5.55;1.90;;;6.20;99.90;;;;;;21043490;28;20058;-68
2022/11/02 01:18:41;;;;;;;12.02;2.47;;;6.20;99.90;;;;;;21058122;28;20496;-59
2022/11/02 01:28:43;;;;;;;6.45;2.20;;;6.20;99.90;;;;;;21129121;28;20028;-59
2022/11/02 01:38:49;;;;;;;6.63;2.25;;;6.20;99.90;;;;;;21080564;28;20035;-59
2022/11/02 01:48:59;;;;;;;5.57;2.03;;;6.20;99.90;;;;;;21096769;28;20093;-67
2022/11/02 01:59:08;;;;;;;7.03;1.15;;;6.20;99.90;;;;;;21093175;28;20443;-59
2022/11/02 02:09:13;;;;;;;5.20;1.65;;;6.40;99.90;;;;;;21092734;28;20484;-59
2022/11/02 02:19:41;;;;;;;5.15;1.90;;;6.20;99.90;;;;;;21119849;28;20388;-67
2022/11/02 02:30:08;;;;;;;6.47;1.20;;;6.10;99.90;;;;;;21097627;28;20032;-66
2022/11/02 02:40:54;;;;;;;5.30;1.73;;;6.00;99.90;;;;;;21089718;28;20036;-67
2022/11/02 02:51:03;;;;;;;4.53;1.30;;;6.00;99.90;;;;;;20702459;28;20041;-67
2022/11/02 03:01:11;;;;;;;6.90;1.75;;;5.90;99.90;;;;;;20722970;28;20042;-59
2022/11/02 03:11:17;;;;;;;4.55;1.67;;;5.80;99.90;;;;;;20666504;28;20077;-67
2022/11/02 03:21:41;;;;;;;11.85;2.22;;;5.80;99.90;;;;;;20749779;28;20036;-60
2022/11/02 03:32:03;;;;;;;9.57;2.33;;;5.80;99.90;;;;;;21037544;28;20392;-67
2022/11/02 03:42:08;;;;;;;10.02;2.20;;;6.00;99.90;;;;;;21099262;28;20040;-59
2022/11/02 03:52:19;;;;;;;9.32;2.42;;;5.90;99.90;;;;;;21036071;28;20493;-59
2022/11/02 04:02:24;;;;;;;8.02;1.90;;;5.90;99.90;;;;;;21048071;28;20041;-59
2022/11/02 04:43:37;;;;;;;8.18;2.10;;;5.70;99.90;;;;;;21045138;28;20044;-59
2022/11/02 04:53:40;;;;;;;5.53;1.48;;;5.80;99.90;;;;;;21102041;28;20476;-59
2022/11/02 05:03:49;;;;;;;3.05;1.45;;;5.80;99.90;;;;;;21084791;28;20447;-61
2022/11/02 05:13:53;;;;;;;6.25;1.27;;;5.70;99.90;;;;;;21115436;28;20032;-59
2022/11/02 05:23:56;;;;;;;7.60;1.60;;;5.70;99.90;;;;;;21080337;28;20393;-59
2022/11/02 05:33:59;;;;;;;7.95;1.50;;;5.70;99.90;;;;;;21097916;28;20032;-58
2022/11/02 05:44:01;;;;;;;8.27;1.60;;;5.70;99.90;;;;;;21133424;28;20136;-59
2022/11/02 05:54:06;;;;;;;5.13;1.42;;;5.80;99.90;;;;;;21122399;28;20031;-66
2022/11/02 06:04:09;;;;;;;7.95;1.77;;;5.80;99.90;;;;;;21085397;28;20096;-59
2022/11/02 06:14:12;;;;;;;10.68;2.25;;;5.80;99.90;;;;;;21089917;28;20492;-66
2022/11/02 06:24:14;;;;;;;6.70;2.08;;;5.90;99.90;;;;;;21109302;28;20032;-58
2022/11/02 06:34:17;;;;;;;4.97;1.73;;;6.00;99.90;;;;;;21087728;28;20065;-67
2022/11/02 06:44:19;;;;;;;7.22;2.08;;;6.30;99.90;;;;;;21103515;28;20055;-67
2022/11/02 06:54:22;;;;;;;9.48;2.17;;;6.40;99.90;;;;;;21101061;28;20089;-59
2022/11/02 07:04:25;;;;;;;6.22;2.55;;;6.40;99.90;;;;;;21084149;28;20039;-58
2022/11/02 07:14:29;;;;;;;5.38;2.03;;;6.60;99.90;;;;;;21110025;28;20370;-60
2022/11/02 07:24:32;;;;;;;6.90;1.65;;;7.10;99.90;;;;;;21091691;28;20078;-59
2022/11/02 07:34:34;;;;;;;8.57;2.40;;;7.90;99.90;;;;;;21091548;28;20028;-59
2022/11/02 07:44:37;;;;;;;7.85;2.15;;;8.90;99.90;;;;;;21065158;28;20458;-60
2022/11/02 07:54:40;;;;;;;9.07;2.15;;;10.00;99.90;;;;;;21089977;28;20440;-60
2022/11/02 08:04:42;;;;;;;6.18;1.80;;;10.90;99.90;;;;;;21113080;28;20097;-60
2022/11/02 08:14:46;;;;;;;8.48;1.83;;;11.60;99.90;;;;;;21119964;28;20035;-60
2022/11/02 08:24:48;;;;;;;8.30;2.05;;;12.30;99.90;;;;;;21086783;28;20103;-60
2022/11/02 08:34:50;;;;;;;6.88;1.70;;;12.80;99.90;;;;;;21119538;28;20023;-59
2022/11/02 08:44:53;;;;;;;7.65;1.70;;;13.70;99.90;;;;;;21066590;28;20413;-60
2022/11/02 08:54:55;;;;;;;8.13;1.77;;;14.60;99.90;;;;;;21048912;28;20028;-63
2022/11/02 09:04:57;;;;;;;9.60;2.00;;;15.10;99.90;;;;;;21016314;28;20097;-64
2022/11/02 09:15:01;;;;;;;6.85;1.70;;;14.90;99.90;;;;;;21052017;28;20039;-61
2022/11/02 09:25:03;;;;;;;7.28;1.48;;;14.90;99.90;;;;;;21025820;28;20480;-62
2022/11/02 09:35:09;;;;;;;7.07;2.00;;;15.00;99.90;;;;;;21057686;28;20106;-64
2022/11/02 09:45:16;;;;;;;6.55;2.17;;;15.10;99.90;;;;;;21039958;28;20044;-61
2022/11/02 09:55:33;;;;;;;6.00;2.47;;;15.10;99.90;;;;;;20999441;28;20062;-61
2022/11/02 10:05:49;;;;;;;6.50;2.50;;;14.80;99.90;;;;;;21002220;28;20280;-60
2022/11/02 10:16:09;;;;;;;7.97;2.10;;;14.50;99.90;;;;;;20997126;28;20059;-67
2022/11/02 10:26:42;;;;;;;5.00;2.20;;;14.30;99.90;;;;;;21002106;28;20036;-60
2022/11/02 10:36:55;;;;;;;8.38;2.55;;;14.00;99.90;;;;;;20983433;28;20048;-60
2022/11/02 10:47:08;;;;;;;6.85;2.47;;;14.10;99.90;;;;;;21032696;28;20053;-61
2022/11/02 10:57:12;;;;;;;5.47;2.20;;;14.00;99.90;;;;;;20977453;28;20066;-61
2022/11/02 11:07:26;;;;;;;9.45;2.17;;;14.30;99.90;;;;;;20992916;28;20037;-60
2022/11/02 11:17:34;;;;;;;11.93;4.07;;;14.60;99.90;;;;;;21000758;28;20074;-64
2022/11/02 11:27:57;;;;;;;9.35;3.60;;;14.70;99.90;;;;;;20974415;28;20032;-60
2022/11/02 11:38:07;;;;;;;7.78;3.28;;;15.30;99.90;;;;;;21025483;28;20389;-60
2022/11/02 11:48:38;;;;;;;12.40;4.30;;;14.90;99.90;;;;;;21026813;28;20559;-61
2022/11/02 11:58:50;;;;;;;10.15;4.07;;;14.70;99.90;;;;;;21031342;28;20036;-61
2022/11/02 12:09:01;;;;;;;9.40;4.20;;;14.20;99.90;;;;;;21002201;28;20166;-66
2022/11/02 12:19:37;;;;;;;9.60;3.65;;;13.60;99.90;;;;;;20996491;28;20090;-60
2022/11/02 12:30:17;;;;;;;11.38;4.15;;;12.80;99.90;;;;;;20979784;28;20059;-60
2022/11/02 12:40:44;;;;;;;12.02;3.92;;;12.70;99.90;;;;;;20984948;28;20062;-66
2022/11/02 12:50:49;;;;;;;9.40;4.03;;;13.00;99.90;;;;;;21019086;28;20099;-61
2022/11/02 13:01:00;;;;;;;9.63;4.43;;;13.00;99.90;;;;;;21007375;28;20076;-66
2022/11/02 13:11:13;;;;;;;8.93;3.88;;;12.80;99.90;;;;;;21028070;28;20040;-60
2022/11/02 13:21:27;;;;;;;11.48;3.45;;;12.60;99.90;;;;;;21028170;28;20036;-60
2022/11/02 13:32:25;;;;;;;8.40;3.22;;;12.50;99.90;;;;;;21014733;28;20040;-60
2022/11/02 13:43:27;;;;;;;10.70;4.00;;;12.80;99.90;;;;;;20619323;28;20043;-60
2022/11/02 13:53:38;;;;;;;10.77;4.45;;;12.70;99.90;;;;;;20501518;29;20479;-60
2022/11/02 14:03:51;;;;;;;10.88;4.70;;;12.30;99.90;;;;;;20469824;28;20047;-62
2022/11/02 14:13:54;;;;;;;13.40;6.80;;;12.30;99.90;;;;;;20494408;28;20114;-60
2022/11/02 14:23:56;;;;;;;13.77;6.88;;;12.10;99.90;;;;;;20825448;28;20040;-60
2022/11/02 14:34:31;;;;;;;15.68;7.25;;;11.90;99.90;;;;;;21130423;28;20028;-65
2022/11/02 14:44:59;;;;;;;11.07;5.95;;;11.80;99.90;;;;;;21069136;28;20085;-60
2022/11/02 14:55:24;;;;;;;14.80;8.27;;;11.80;99.90;;;;;;20984543;28;20040;-65
2022/11/02 15:05:38;;;;;;;14.68;7.70;;;11.60;99.90;;;;;;20993159;28;20041;-60
2022/11/02 15:15:41;;;;;;;15.02;7.53;;;11.30;99.90;;;;;;21024758;28;20094;-60
2022/11/02 15:25:50;;;;;;;12.43;7.63;;;11.00;99.90;;;;;;20986339;28;20110;-60
2022/11/02 15:35:54;;;;;;;17.50;8.70;;;10.80;99.90;;;;;;20988036;28;20032;-60
2022/11/02 15:45:57;;;;;;;17.25;8.35;;;10.50;99.90;;;;;;21020226;28;20445;-60
2022/11/02 15:56:14;;;;;;;23.52;10.45;;;10.30;99.90;;;;;;21052532;28;20116;-60
2022/11/02 16:06:38;;;;;;;17.30;8.38;;;10.10;99.90;;;;;;21001530;28;20040;-60
2022/11/02 16:16:49;;;;;;;20.70;10.23;;;10.00;99.90;;;;;;21039895;28;20036;-61
2022/11/02 16:26:52;;;;;;;25.35;15.15;;;9.80;99.90;;;;;;21124611;28;20031;-65
2022/11/02 16:36:56;;;;;;;26.20;11.88;;;9.70;99.90;;;;;;21132299;28;20035;-65
2022/11/02 16:47:06;;;;;;;26.05;11.57;;;9.50;99.90;;;;;;21050406;28;20063;-65
2022/11/02 16:57:17;;;;;;;17.10;9.77;;;9.50;99.90;;;;;;21099227;28;20048;-60
2022/11/02 17:07:23;;;;;;;17.52;8.25;;;9.40;99.90;;;;;;21058953;28;20054;-60
2022/11/02 17:17:35;;;;;;;14.52;7.75;;;9.50;99.90;;;;;;21083953;28;20035;-60
2022/11/02 17:27:38;;;;;;;14.02;6.85;;;9.30;99.90;;;;;;21088653;28;20093;-64
2022/11/02 17:37:41;;;;;;;15.27;6.63;;;9.10;99.90;;;;;;21095109;28;20076;-65
2022/11/02 17:47:45;;;;;;;17.42;6.70;;;9.10;99.90;;;;;;21074961;28;20048;-65
2022/11/02 17:57:48;;;;;;;13.63;6.68;;;9.00;99.90;;;;;;21123100;28;20035;-64
2022/11/02 18:07:51;;;;;;;19.55;9.18;;;8.90;99.90;;;;;;21090559;28;20036;-60
2022/11/02 18:17:55;;;;;;;13.57;7.03;;;8.90;99.90;;;;;;21095362;28;20032;-65
2022/11/02 18:28:01;;;;;;;14.13;5.97;;;8.90;99.90;;;;;;21045557;28;20040;-60
2022/11/02 18:38:04;;;;;;;15.88;7.38;;;9.00;99.90;;;;;;21105290;28;20039;-67
2022/11/02 18:48:08;;;;;;;12.68;7.82;;;9.00;99.90;;;;;;21141158;28;20048;-61
2022/11/02 18:58:11;;;;;;;12.00;6.43;;;9.00;99.90;;;;;;21081291;28;20108;-60
2022/11/02 19:18:34;;;;;;;12.10;5.30;;;8.90;99.90;;;;;;21065563;28;20044;-63
2022/11/02 19:28:38;;;;;;;14.63;6.10;;;8.50;99.90;;;;;;21093509;28;20492;-61
2022/11/02 19:38:41;;;;;;;15.23;6.50;;;8.00;99.90;;;;;;21104004;28;20032;-61
2022/11/02 19:48:45;;;;;;;14.25;6.85;;;7.50;99.90;;;;;;21057462;28;20048;-64
2022/11/02 19:58:50;;;;;;;13.85;6.38;;;7.40;99.90;;;;;;21053705;28;20100;-64
2022/11/02 20:08:55;;;;;;;14.82;6.05;;;7.40;99.90;;;;;;21043882;28;20032;-60
2022/11/02 20:18:58;;;;;;;12.70;5.55;;;7.40;99.90;;;;;;21111376;28;20027;-61
2022/11/02 20:29:03;;;;;;;9.20;4.68;;;7.50;99.90;;;;;;21099317;28;20089;-60
2022/11/02 20:39:06;;;;;;;10.27;5.18;;;7.60;99.90;;;;;;21076812;28;20040;-64
2022/11/02 20:49:09;;;;;;;9.27;4.65;;;7.50;99.90;;;;;;21056565;28;20040;-57
2022/11/02 20:59:13;;;;;;;10.98;4.60;;;7.60;99.90;;;;;;21097606;28;20120;-60
2022/11/02 21:09:17;;;;;;;7.13;4.32;;;8.00;99.90;;;;;;21083095;28;20032;-60
2022/11/02 21:19:20;;;;;;;6.88;3.40;;;8.30;99.90;;;;;;21039864;28;20039;-60
2022/11/02 21:29:22;;;;;;;7.57;3.35;;;8.60;99.90;;;;;;21099118;28;20027;-60
2022/11/02 21:39:25;;;;;;;7.60;3.40;;;8.80;99.90;;;;;;21093414;28;20036;-60
2022/11/02 21:49:28;;;;;;;5.63;3.10;;;9.00;99.90;;;;;;21091203;28;20052;-66
2022/11/02 21:59:31;;;;;;;7.72;3.30;;;9.00;99.90;;;;;;21077318;28;20401;-65
2022/11/02 22:09:34;;;;;;;5.15;2.35;;;8.90;99.90;;;;;;21132287;28;20036;-56
2022/11/02 22:19:36;;;;;;;5.68;2.20;;;8.70;99.90;;;;;;21115111;28;20023;-65
2022/11/02 22:29:39;;;;;;;5.43;2.38;;;8.70;99.90;;;;;;21074992;28;20032;-60
2022/11/02 22:39:42;;;;;;;5.18;2.15;;;8.80;99.90;;;;;;21081761;28;20081;-66
2022/11/02 22:49:44;;;;;;;6.75;2.55;;;8.90;99.90;;;;;;21093116;28;20044;-66
2022/11/02 22:59:48;;;;;;;4.30;1.85;;;9.00;99.90;;;;;;21111933;28;20558;-66
2022/11/02 23:09:50;;;;;;;5.93;1.70;;;9.10;99.90;;;;;;21093240;28;20411;-60
2022/11/02 23:19:52;;;;;;;6.13;1.88;;;9.20;99.90;;;;;;21101966;28;20039;-66
2022/11/02 23:40:17;;;;;;;2.97;1.25;;;9.20;99.90;;;;;;21080080;28;20079;-65
